Tropical Cyclones
[Index]
Main Index Home Page Stock Weather Photos Extreme Storms Discussion Storm News and Storm Chasing Reports Tropical Cyclones / Hurricanes / Typhoons Weather Data and Links Wild Fires / Bushfires Weather Observation Techniques Weather Picture Catalogue Tornado Pictures and Reports Stock Video Footage and DVDs for sale
Season 2014-2015 Tropical Cyclone EUNICE Track Map
Season 2014-2015 Summaries (Operational Data): [AU] [SIO] [SPAC] [SH]
<<- Previous TC | 2014-2015 Season | Next TC ->>

click for intensity scale information  Lat/long Grid: Show Hide

 Date Labels: Show Hide

Operational Tropical Cyclone Data : JTWC Advisories

Name: EUNICE
Number: 1509

24 Jan 2015 12:00 UTC to 02 Feb 2015 12:00 UTC

    date/time    lat    long     hPa   cat  kts
2015-01-24 12   15.2    71.8    1010         15          
2015-01-24 18   14.8    74.0    1010         15          
2015-01-25 00   15.1    73.2    1010         15          
2015-01-25 06   15.3    72.2    1007         15          
2015-01-25 12   15.4    71.1    1007         15          
2015-01-25 18   15.3    70.0    1006         20          
2015-01-26 00   15.0    68.8    1006         20          
2015-01-26 06   14.7    66.9    1004         25          
2015-01-26 12   14.5    65.4    1002         25          
2015-01-26 18   14.6    64.0    1004         25          
2015-01-27 00   14.0    63.6    1004         25          
2015-01-27 06   13.1    63.2    1000         30          
2015-01-27 12   12.9    63.2    1000         30          
2015-01-27 18   12.9    63.5     996    1    35          
2015-01-28 00   13.3    64.0     985    2    50          
2015-01-28 06   13.9    64.5     974    3    65          
2015-01-28 12   14.2    64.8     959    3    85          
2015-01-28 18   14.9    65.4     956    4    90          
2015-01-29 00   15.0    65.7     956    4    90          
2015-01-29 06   15.3    66.4     952    4    95          
2015-01-29 12   16.2    66.9     937    5   115          
2015-01-29 18   17.0    67.3     926    5   130          
2015-01-30 00   17.7    67.7     918    5   140          
2015-01-30 06   18.4    68.0     918    5   140          
2015-01-30 12   19.2    68.5     918    5   140          
2015-01-30 18   19.7    69.0     922    5   135          
2015-01-31 00   20.1    69.9     926    5   130          
2015-01-31 06   20.3    71.2     937    5   115          
2015-01-31 12   20.6    72.5     937    5   115          
2015-01-31 18   20.7    74.2     944    4   105          
2015-02-01 00   20.8    76.0     956    4    90          
2015-02-01 06   21.0    78.2     963    3    80          
2015-02-01 12   21.3    80.1     970    3    70          
2015-02-01 18   22.0    82.5     967    3    75          
2015-02-02 00   23.3    85.4     970    3    65          
2015-02-02 06   25.5    88.5     974    3    65          
2015-02-02 12   28.5    91.5     982    2    55          
Winds are 10-min average.

Tropical cyclone tracks developed by Michael Bath using operational warnings and advisories and Google Maps.


[Australian Severe Weather index] [Copyright Notice] [Email Contacts] [Search This Site] [Privacy Policy]
Document: tropical_cyclone_eunice.htm Updated: 2 May 2017